createdAt,value
2019-03-08T00:00:04.441Z,996.33
2019-03-08T00:01:04.407Z,996.29
2019-03-08T00:02:04.395Z,996.30
2019-03-08T00:03:04.384Z,996.31
2019-03-08T00:04:04.383Z,996.32
2019-03-08T00:05:04.392Z,996.32
2019-03-08T00:06:04.373Z,996.38
2019-03-08T00:07:04.344Z,996.25
2019-03-08T00:08:04.325Z,996.29
2019-03-08T00:09:04.318Z,996.26
2019-03-08T00:10:04.311Z,996.21
2019-03-08T00:11:04.336Z,996.21
2019-03-08T00:12:04.289Z,996.30
2019-03-08T00:13:05.416Z,996.20
2019-03-08T00:14:04.263Z,996.17
2019-03-08T00:15:04.255Z,996.15
2019-03-08T00:16:04.252Z,996.25
2019-03-08T00:17:04.226Z,996.19
2019-03-08T00:18:04.218Z,996.20
2019-03-08T00:19:04.206Z,996.12
2019-03-08T00:20:04.196Z,996.18
2019-03-08T00:21:04.208Z,996.13
2019-03-08T00:22:04.176Z,996.12
2019-03-08T00:23:04.164Z,996.12
2019-03-08T00:24:04.151Z,996.13
2019-03-08T00:25:04.139Z,996.10
2019-03-08T00:26:04.448Z,996.15
2019-03-08T00:27:04.118Z,996.10
2019-03-08T00:28:04.110Z,996.05
2019-03-08T00:29:04.091Z,996.05
2019-03-08T00:30:04.084Z,996.05
2019-03-08T00:31:04.104Z,996.08
2019-03-08T00:32:04.063Z,996.07
2019-03-08T00:33:04.051Z,996.11
2019-03-08T00:34:04.052Z,996.09
2019-03-08T00:35:04.025Z,996.11
2019-03-08T00:36:04.040Z,996.15
2019-03-08T00:37:04.018Z,996.03
2019-03-08T00:38:03.996Z,996.12
2019-03-08T00:39:03.985Z,996.08
2019-03-08T00:40:03.964Z,996.04
2019-03-08T00:41:03.972Z,996.06
2019-03-08T00:42:03.962Z,996.09
2019-03-08T00:43:03.940Z,996.10
2019-03-08T00:44:03.928Z,996.10
2019-03-08T00:45:03.917Z,996.09
2019-03-08T00:46:03.904Z,996.09
2019-03-08T00:47:03.915Z,996.08
2019-03-08T00:48:03.876Z,996.10
2019-03-08T00:49:03.870Z,996.11
2019-03-08T00:50:03.861Z,996.04
2019-03-08T00:51:03.864Z,996.05
2019-03-08T00:52:03.838Z,996.15
2019-03-08T00:53:03.823Z,996.10
2019-03-08T00:54:03.812Z,996.12
2019-03-08T00:55:03.806Z,996.13
2019-03-08T00:56:03.806Z,996.08
2019-03-08T00:57:03.792Z,996.00
2019-03-08T00:58:03.773Z,996.02
2019-03-08T00:59:03.773Z,995.95
2019-03-08T01:00:03.748Z,996.00
2019-03-08T01:01:03.760Z,996.02
2019-03-08T01:02:03.728Z,996.01
2019-03-08T01:03:03.734Z,995.99
2019-03-08T01:04:03.697Z,995.99
2019-03-08T01:05:03.688Z,996.02
2019-03-08T01:06:03.708Z,995.99
2019-03-08T01:07:03.679Z,995.98
2019-03-08T01:08:03.662Z,996.09
2019-03-08T01:09:03.643Z,995.99
2019-03-08T01:10:03.632Z,995.97
2019-03-08T01:11:03.620Z,996.01
2019-03-08T01:12:03.637Z,995.93
2019-03-08T01:13:03.602Z,995.88
2019-03-08T01:14:03.608Z,995.92
2019-03-08T01:15:03.572Z,995.87
2019-03-08T01:16:03.562Z,995.85
2019-03-08T01:17:03.554Z,995.88
2019-03-08T01:18:03.545Z,995.82
2019-03-08T01:19:03.543Z,995.81
2019-03-08T01:20:03.548Z,995.83
2019-03-08T01:21:03.533Z,995.82
2019-03-08T01:22:03.497Z,995.80
2019-03-08T01:23:03.506Z,995.80
2019-03-08T01:24:03.506Z,995.85
2019-03-08T01:25:03.472Z,995.77
2019-03-08T01:26:03.451Z,995.80
2019-03-08T01:27:03.445Z,995.68
2019-03-08T01:28:03.428Z,995.78
2019-03-08T01:29:03.417Z,995.78
2019-03-08T01:30:03.424Z,995.71
2019-03-08T01:31:03.404Z,995.82
2019-03-08T01:32:03.386Z,995.63
2019-03-08T01:33:03.376Z,995.71
2019-03-08T01:34:03.364Z,995.71
2019-03-08T01:35:03.380Z,995.65
2019-03-08T01:36:03.344Z,995.74
2019-03-08T01:37:03.333Z,995.72
2019-03-08T01:38:03.317Z,995.68
2019-03-08T01:39:03.306Z,995.73
2019-03-08T01:40:03.322Z,995.70
2019-03-08T01:41:03.281Z,995.62
2019-03-08T01:42:03.295Z,995.78
2019-03-08T01:43:03.258Z,995.73
2019-03-08T01:44:03.250Z,995.75
2019-03-08T01:45:03.855Z,995.66
2019-03-08T01:46:03.238Z,995.71
2019-03-08T01:47:03.230Z,995.73
2019-03-08T01:48:03.213Z,995.67
2019-03-08T01:49:03.198Z,995.66
2019-03-08T01:50:03.192Z,995.60
2019-03-08T01:51:03.190Z,995.63
2019-03-08T01:52:03.155Z,995.62
2019-03-08T01:53:03.144Z,995.61
2019-03-08T01:54:03.143Z,995.54
2019-03-08T01:55:03.130Z,995.51
2019-03-08T01:56:03.132Z,995.56
2019-03-08T01:57:03.112Z,995.44
2019-03-08T01:58:03.090Z,995.40
2019-03-08T01:59:03.083Z,995.48
2019-03-08T02:00:03.075Z,995.44
2019-03-08T02:01:03.095Z,995.44
2019-03-08T02:02:03.044Z,995.51
2019-03-08T02:03:03.037Z,995.52
2019-03-08T02:04:03.021Z,995.51
2019-03-08T02:05:03.017Z,995.42
2019-03-08T02:06:03.018Z,995.46
2019-03-08T02:07:02.992Z,995.47
2019-03-08T02:08:03.001Z,995.42
2019-03-08T02:09:02.966Z,995.45
2019-03-08T02:10:02.958Z,995.52
2019-03-08T02:11:02.953Z,995.53
2019-03-08T02:12:02.934Z,995.48
2019-03-08T02:13:02.943Z,995.50
2019-03-08T02:14:02.912Z,995.43
2019-03-08T02:15:02.903Z,995.33
2019-03-08T02:16:02.889Z,995.36
2019-03-08T02:17:02.905Z,995.31
2019-03-08T02:18:02.898Z,995.39
2019-03-08T02:19:02.854Z,995.36
2019-03-08T02:20:02.846Z,995.38
2019-03-08T02:21:07.164Z,995.34
2019-03-08T02:22:03.857Z,995.34
2019-03-08T02:23:02.835Z,995.29
2019-03-08T02:24:02.801Z,995.36
2019-03-08T02:25:02.797Z,995.27
2019-03-08T02:26:02.804Z,995.25
2019-03-08T02:27:02.764Z,995.26
2019-03-08T02:28:02.795Z,995.15
2019-03-08T02:29:02.739Z,995.23
2019-03-08T02:30:02.738Z,995.25
2019-03-08T02:31:02.720Z,995.14
2019-03-08T02:32:02.718Z,995.12
2019-03-08T02:33:02.716Z,995.11
2019-03-08T02:34:02.683Z,995.08
2019-03-08T02:35:02.693Z,995.15
2019-03-08T02:36:02.666Z,995.11
2019-03-08T02:37:02.652Z,995.08
2019-03-08T02:38:02.719Z,995.02
2019-03-08T02:39:02.632Z,995.04
2019-03-08T02:40:02.620Z,995.00
2019-03-08T02:41:02.613Z,995.08
2019-03-08T02:42:02.596Z,994.97
2019-03-08T02:43:02.600Z,995.08
2019-03-08T02:44:02.578Z,995.03
2019-03-08T02:45:02.563Z,995.14
2019-03-08T02:46:02.552Z,995.12
2019-03-08T02:47:02.541Z,995.08
2019-03-08T02:48:02.547Z,995.21
2019-03-08T02:49:02.532Z,995.19
2019-03-08T02:50:02.509Z,995.10
2019-03-08T02:51:02.518Z,995.08
2019-03-08T02:52:02.484Z,995.05
2019-03-08T02:53:02.495Z,995.07
2019-03-08T02:54:02.466Z,995.11
2019-03-08T02:55:02.452Z,995.21
2019-03-08T02:56:02.442Z,995.13
2019-03-08T02:57:02.442Z,995.02
2019-03-08T02:58:02.458Z,995.17
2019-03-08T02:59:02.402Z,995.10
2019-03-08T03:00:02.394Z,995.12
2019-03-08T03:01:02.383Z,995.05
2019-03-08T03:02:02.380Z,995.08
2019-03-08T03:03:02.357Z,995.15
2019-03-08T03:04:02.370Z,995.15
2019-03-08T03:05:02.343Z,995.14
2019-03-08T03:06:02.332Z,995.17
2019-03-08T03:07:02.318Z,995.16
2019-03-08T03:08:02.307Z,995.14
2019-03-08T03:09:02.318Z,995.06
2019-03-08T03:10:02.289Z,995.16
2019-03-08T03:11:02.273Z,995.14
2019-03-08T03:12:02.258Z,995.10
2019-03-08T03:13:02.253Z,995.10
2019-03-08T03:14:02.255Z,995.11
2019-03-08T03:15:02.229Z,995.09
2019-03-08T03:16:02.214Z,995.15
2019-03-08T03:17:02.211Z,995.07
2019-03-08T03:18:02.191Z,995.08
2019-03-08T03:19:02.217Z,995.07
2019-03-08T03:20:02.167Z,995.07
2019-03-08T03:21:02.214Z,995.09
2019-03-08T03:22:02.147Z,995.10
2019-03-08T03:23:02.133Z,995.04
2019-03-08T03:24:02.146Z,994.98
2019-03-08T03:25:02.116Z,994.99
2019-03-08T03:26:02.104Z,995.02
2019-03-08T03:27:02.094Z,994.94
2019-03-08T03:28:02.083Z,994.99
2019-03-08T03:29:02.088Z,995.02
2019-03-08T03:30:02.064Z,994.96
2019-03-08T03:31:02.056Z,994.82
2019-03-08T03:32:02.041Z,994.95
2019-03-08T03:33:02.315Z,994.85
2019-03-08T03:34:02.034Z,995.01
2019-03-08T03:35:02.001Z,994.93
2019-03-08T03:36:01.991Z,995.02
2019-03-08T03:37:02.010Z,994.91
2019-03-08T03:38:01.969Z,994.91
2019-03-08T03:39:01.976Z,994.96
2019-03-08T03:40:01.945Z,994.82
2019-03-08T03:41:01.940Z,994.87
2019-03-08T03:42:01.929Z,994.93
2019-03-08T03:43:01.913Z,994.83
2019-03-08T03:44:01.920Z,994.83
2019-03-08T03:45:02.758Z,994.88
2019-03-08T03:46:01.879Z,994.85
2019-03-08T03:47:01.867Z,994.82
2019-03-08T03:48:01.862Z,994.86
2019-03-08T03:49:01.875Z,994.79
2019-03-08T03:50:01.863Z,994.78
2019-03-08T03:51:01.820Z,994.85
2019-03-08T03:52:01.818Z,994.81
2019-03-08T03:53:01.797Z,994.71
2019-03-08T03:54:01.802Z,994.81
2019-03-08T03:55:01.806Z,994.79
2019-03-08T03:56:01.766Z,994.66
2019-03-08T03:57:01.749Z,994.71
2019-03-08T03:58:01.752Z,994.82
2019-03-08T03:59:01.739Z,994.73
2019-03-08T04:00:01.737Z,994.72
2019-03-08T04:01:01.715Z,994.63
2019-03-08T04:02:01.698Z,994.81
2019-03-08T04:03:01.686Z,994.81
2019-03-08T04:04:01.676Z,994.80
2019-03-08T04:05:01.683Z,994.69
2019-03-08T04:06:01.652Z,994.69
2019-03-08T04:07:01.641Z,994.70
2019-03-08T04:08:01.627Z,994.69
2019-03-08T04:09:01.648Z,994.77
2019-03-08T04:10:01.632Z,994.72
2019-03-08T04:11:01.603Z,994.70
2019-03-08T04:12:01.589Z,994.66
2019-03-08T04:13:01.577Z,994.85
2019-03-08T04:14:01.566Z,994.74
2019-03-08T04:15:01.591Z,994.67
2019-03-08T04:16:01.540Z,994.75
2019-03-08T04:17:01.533Z,994.67
2019-03-08T04:18:01.519Z,994.75
2019-03-08T04:19:01.516Z,994.69
2019-03-08T04:20:01.534Z,994.63
2019-03-08T04:21:01.488Z,994.68
2019-03-08T04:22:01.481Z,994.61
2019-03-08T04:23:01.478Z,994.66
2019-03-08T04:24:01.462Z,994.56
2019-03-08T04:25:01.467Z,994.64
2019-03-08T04:26:01.430Z,994.60
2019-03-08T04:27:01.416Z,994.61
2019-03-08T04:28:01.418Z,994.53
2019-03-08T04:29:01.392Z,994.58
2019-03-08T04:30:01.404Z,994.60
2019-03-08T04:31:01.370Z,994.64
2019-03-08T04:32:01.370Z,994.57
2019-03-08T04:33:01.346Z,994.66
2019-03-08T04:34:01.346Z,994.68
2019-03-08T04:35:01.369Z,994.65
2019-03-08T04:36:01.324Z,994.57
2019-03-08T04:37:01.305Z,994.66
2019-03-08T04:38:01.290Z,994.67
2019-03-08T04:39:01.286Z,994.58
2019-03-08T04:40:01.279Z,994.49
2019-03-08T04:41:01.286Z,994.48
2019-03-08T04:42:01.269Z,994.56
2019-03-08T04:43:01.238Z,994.44
2019-03-08T04:44:01.259Z,994.50
2019-03-08T04:45:01.244Z,994.51
2019-03-08T04:46:01.229Z,994.53
2019-03-08T04:47:01.198Z,994.41
2019-03-08T04:48:01.183Z,994.53
2019-03-08T04:49:01.176Z,994.45
2019-03-08T04:50:01.156Z,994.42
2019-03-08T04:51:01.175Z,994.35
2019-03-08T04:52:01.132Z,994.44
2019-03-08T04:53:01.122Z,994.49
2019-03-08T04:54:01.133Z,994.44
2019-03-08T04:55:01.108Z,994.48
2019-03-08T04:56:01.123Z,994.50
2019-03-08T04:57:01.086Z,994.61
2019-03-08T04:58:01.069Z,994.65
2019-03-08T04:59:01.054Z,994.67
2019-03-08T05:00:01.043Z,994.57
2019-03-08T05:01:01.052Z,994.53
2019-03-08T05:02:01.030Z,994.55
2019-03-08T05:03:01.009Z,994.63
2019-03-08T05:04:01.033Z,994.59
2019-03-08T05:05:00.986Z,994.59
2019-03-08T05:06:01.012Z,994.54
2019-03-08T05:07:00.966Z,994.51
2019-03-08T05:08:00.957Z,994.30
2019-03-08T05:09:00.943Z,994.32
2019-03-08T05:10:00.936Z,994.31
2019-03-08T05:11:00.919Z,994.25
2019-03-08T05:12:00.924Z,994.42
2019-03-08T05:13:00.899Z,994.55
2019-03-08T05:14:00.891Z,994.43
2019-03-08T05:15:00.878Z,994.60
2019-03-08T05:16:00.862Z,994.57
2019-03-08T05:17:00.876Z,994.26
2019-03-08T05:18:00.848Z,994.38
2019-03-08T05:19:00.830Z,994.30
2019-03-08T05:20:00.830Z,994.31
2019-03-08T05:21:00.811Z,994.31
2019-03-08T05:22:00.819Z,994.39
2019-03-08T05:23:00.782Z,994.31
2019-03-08T05:24:00.775Z,994.36
2019-03-08T05:25:00.766Z,994.44
2019-03-08T05:26:00.750Z,994.40
2019-03-08T05:27:00.759Z,994.37
2019-03-08T05:28:00.736Z,994.40
2019-03-08T05:29:00.722Z,994.33
2019-03-08T05:30:00.706Z,994.43
2019-03-08T05:31:00.700Z,994.21
2019-03-08T05:32:00.718Z,994.43
2019-03-08T05:33:00.674Z,994.32
2019-03-08T05:34:00.663Z,994.45
2019-03-08T05:35:00.661Z,994.47
2019-03-08T05:36:00.645Z,994.45
2019-03-08T05:37:00.683Z,994.52
2019-03-08T05:38:00.623Z,994.48
2019-03-08T05:39:00.609Z,994.36
2019-03-08T05:40:00.596Z,994.37
2019-03-08T05:41:00.580Z,994.38
2019-03-08T05:42:00.579Z,994.50
2019-03-08T05:43:00.585Z,994.50
2019-03-08T05:44:00.547Z,994.37
2019-03-08T05:45:00.538Z,994.49
2019-03-08T05:46:00.529Z,994.52
2019-03-08T05:47:00.517Z,994.46
2019-03-08T05:48:00.544Z,994.52
2019-03-08T05:49:00.494Z,994.49
2019-03-08T05:50:00.479Z,994.41
2019-03-08T05:51:00.472Z,994.47
2019-03-08T05:52:00.474Z,994.52
2019-03-08T05:53:00.472Z,994.54
2019-03-08T05:54:00.466Z,994.59
2019-03-08T05:55:00.425Z,994.41
2019-03-08T05:56:00.419Z,994.57
2019-03-08T05:57:00.399Z,994.49
2019-03-08T05:58:00.424Z,994.43
2019-03-08T05:59:00.383Z,994.50
2019-03-08T06:00:00.386Z,994.46
2019-03-08T06:01:00.368Z,994.62
2019-03-08T06:02:00.347Z,994.56
2019-03-08T06:03:00.863Z,994.64
2019-03-08T06:04:00.321Z,994.70
2019-03-08T06:05:00.402Z,994.59
2019-03-08T06:06:00.322Z,994.76
2019-03-08T06:07:00.287Z,994.71
2019-03-08T06:08:00.299Z,994.65
2019-03-08T06:09:00.269Z,994.65
2019-03-08T06:10:00.309Z,994.58
2019-03-08T06:11:00.251Z,994.61
2019-03-08T06:12:00.241Z,994.67
2019-03-08T06:13:00.243Z,994.62
2019-03-08T06:14:00.213Z,994.55
2019-03-08T06:15:00.309Z,994.64
2019-03-08T06:16:00.194Z,994.73
2019-03-08T06:17:00.179Z,994.67
2019-03-08T06:18:00.203Z,994.78
2019-03-08T06:19:00.154Z,994.83
2019-03-08T06:20:00.301Z,994.91
2019-03-08T06:21:00.824Z,994.83
2019-03-08T06:22:00.133Z,994.87
2019-03-08T06:23:00.134Z,994.91
2019-03-08T06:24:00.094Z,994.62
2019-03-08T06:25:00.123Z,994.85
2019-03-08T06:26:00.079Z,994.86
2019-03-08T06:27:00.062Z,994.80
2019-03-08T06:28:00.082Z,994.95
2019-03-08T06:29:00.042Z,994.86
2019-03-08T06:30:00.031Z,994.73
2019-03-08T06:31:00.022Z,994.88
2019-03-08T06:32:00.016Z,994.78
2019-03-08T06:33:00.017Z,994.84
2019-03-08T06:34:00.003Z,994.77
2019-03-08T06:34:59.983Z,994.82
2019-03-08T06:35:59.965Z,994.91
2019-03-08T06:36:59.957Z,994.96
2019-03-08T06:37:59.979Z,995.01
2019-03-08T06:38:59.935Z,995.00
2019-03-08T06:39:59.933Z,995.09
2019-03-08T06:40:59.912Z,995.03
2019-03-08T06:41:59.901Z,995.14
2019-03-08T06:42:59.880Z,994.98
2019-03-08T06:43:59.916Z,995.18
2019-03-08T06:44:59.868Z,995.21
2019-03-08T06:45:59.853Z,995.48
2019-03-08T06:46:59.841Z,995.20
2019-03-08T06:47:59.838Z,995.17
2019-03-08T06:48:59.852Z,995.25
2019-03-08T06:49:59.805Z,995.24
2019-03-08T06:50:59.795Z,995.15
2019-03-08T06:52:00.948Z,995.19
2019-03-08T06:52:59.781Z,995.27
2019-03-08T06:53:59.778Z,995.33
2019-03-08T06:54:59.756Z,995.37
2019-03-08T06:55:59.739Z,995.30
2019-03-08T06:56:59.735Z,995.37
2019-03-08T06:57:59.719Z,995.32
2019-03-08T06:58:59.730Z,995.37
2019-03-08T06:59:59.694Z,995.51
2019-03-08T07:00:59.686Z,995.51
2019-03-08T07:01:59.677Z,995.50
2019-03-08T07:02:59.670Z,995.64
2019-03-08T07:03:59.676Z,995.56
2019-03-08T07:04:59.633Z,995.62
2019-03-08T07:05:59.632Z,995.52
2019-03-08T07:06:59.610Z,995.57
2019-03-08T07:07:59.607Z,995.72
2019-03-08T07:08:59.628Z,995.68
2019-03-08T07:09:59.580Z,995.78
2019-03-08T07:10:59.574Z,995.68
2019-03-08T07:11:59.571Z,995.70
2019-03-08T07:13:03.223Z,995.68
2019-03-08T07:13:59.567Z,995.61
2019-03-08T07:14:59.523Z,995.78
2019-03-08T07:15:59.509Z,995.54
2019-03-08T07:16:59.501Z,995.70
2019-03-08T07:17:59.503Z,995.61
2019-03-08T07:18:59.506Z,995.79
2019-03-08T07:19:59.479Z,995.83
2019-03-08T07:20:59.453Z,995.83
2019-03-08T07:21:59.444Z,995.90
2019-03-08T07:22:59.442Z,995.93
2019-03-08T07:23:59.450Z,995.87
2019-03-08T07:24:59.415Z,996.07
2019-03-08T07:25:59.418Z,996.00
2019-03-08T07:26:59.393Z,996.06
2019-03-08T07:27:59.377Z,996.03
2019-03-08T07:28:59.387Z,996.10
2019-03-08T07:29:59.378Z,996.10
2019-03-08T07:30:59.354Z,996.11
2019-03-08T07:31:59.335Z,996.05
2019-03-08T07:32:59.332Z,996.18
2019-03-08T07:33:59.315Z,996.18
2019-03-08T07:34:59.322Z,996.10
2019-03-08T07:35:59.290Z,996.11
2019-03-08T07:36:59.283Z,996.17
2019-03-08T07:37:59.262Z,996.20
2019-03-08T07:38:59.249Z,996.27
2019-03-08T07:39:59.268Z,996.34
2019-03-08T07:40:59.232Z,996.20
2019-03-08T07:41:59.225Z,996.21
2019-03-08T07:42:59.218Z,996.30
2019-03-08T07:43:59.197Z,996.26
2019-03-08T07:44:59.310Z,996.40
2019-03-08T07:45:59.186Z,996.32
2019-03-08T07:46:59.167Z,996.41
2019-03-08T07:47:59.155Z,996.47
2019-03-08T07:48:59.139Z,996.37
2019-03-08T07:49:59.130Z,996.45
2019-03-08T07:50:59.133Z,996.57
2019-03-08T07:51:59.105Z,996.50
2019-03-08T07:52:59.097Z,996.54
2019-03-08T07:53:59.103Z,996.63
2019-03-08T07:54:59.075Z,996.58
2019-03-08T07:55:59.081Z,996.67
2019-03-08T07:56:59.052Z,996.66
2019-03-08T07:57:59.040Z,996.78
2019-03-08T07:58:59.029Z,996.74
2019-03-08T07:59:59.037Z,996.77
2019-03-08T08:00:59.047Z,996.77
2019-03-08T08:01:59.003Z,996.78
2019-03-08T08:03:03.654Z,996.78
2019-03-08T08:03:59.971Z,996.81
2019-03-08T08:04:58.967Z,996.89
2019-03-08T08:05:58.971Z,996.80
2019-03-08T08:06:58.940Z,996.91
2019-03-08T08:07:58.930Z,997.00
2019-03-08T08:08:58.915Z,996.75
2019-03-08T08:09:58.904Z,997.00
2019-03-08T08:10:58.917Z,997.00
2019-03-08T08:11:58.909Z,997.13
2019-03-08T08:12:58.872Z,997.04
2019-03-08T08:13:58.862Z,997.01
2019-03-08T08:14:58.873Z,997.06
2019-03-08T08:15:58.838Z,997.12
2019-03-08T08:16:58.839Z,997.12
2019-03-08T08:17:58.817Z,997.32
2019-03-08T08:18:58.799Z,997.39
2019-03-08T08:19:58.788Z,997.25
2019-03-08T08:20:58.804Z,997.36
2019-03-08T08:21:58.776Z,997.41
2019-03-08T08:22:58.765Z,997.53
2019-03-08T08:23:58.776Z,997.39
2019-03-08T08:24:58.739Z,997.40
2019-03-08T08:25:58.749Z,997.53
2019-03-08T08:26:58.744Z,997.55
2019-03-08T08:27:58.699Z,997.52
2019-03-08T08:28:58.704Z,997.65
2019-03-08T08:29:58.677Z,997.73
2019-03-08T08:30:58.683Z,997.64
2019-03-08T08:31:58.658Z,997.76
2019-03-08T08:32:58.669Z,997.67
2019-03-08T08:33:58.640Z,997.72
2019-03-08T08:34:58.623Z,997.75
2019-03-08T08:35:58.620Z,997.74
2019-03-08T08:36:58.603Z,997.92
2019-03-08T08:37:58.608Z,997.75
2019-03-08T08:38:58.580Z,997.77
2019-03-08T08:39:58.575Z,997.88
2019-03-08T08:40:58.557Z,997.78
2019-03-08T08:41:58.556Z,997.92
2019-03-08T08:42:58.628Z,997.86
2019-03-08T08:43:58.523Z,997.80
2019-03-08T08:44:58.512Z,998.17
2019-03-08T08:45:58.503Z,998.05
2019-03-08T08:46:58.503Z,998.06
2019-03-08T08:47:58.513Z,998.01
2019-03-08T08:48:58.463Z,998.02
2019-03-08T08:49:58.469Z,998.14
2019-03-08T08:50:58.464Z,998.06
2019-03-08T08:51:58.427Z,998.15
2019-03-08T08:52:58.419Z,998.03
2019-03-08T08:53:58.431Z,998.06
2019-03-08T08:54:58.401Z,998.12
2019-03-08T08:55:58.384Z,998.12
2019-03-08T08:56:58.382Z,998.18
2019-03-08T08:57:58.371Z,998.22
2019-03-08T08:58:58.372Z,998.23
2019-03-08T08:59:58.337Z,998.05
2019-03-08T09:00:58.334Z,998.15
2019-03-08T09:01:58.323Z,998.39
2019-03-08T09:02:58.318Z,998.51
2019-03-08T09:03:58.325Z,998.34
2019-03-08T09:04:58.286Z,998.33
2019-03-08T09:05:58.278Z,998.47
2019-03-08T09:06:58.263Z,998.41
2019-03-08T09:07:58.259Z,998.42
2019-03-08T09:08:58.267Z,998.48
2019-03-08T09:09:58.229Z,998.42
2019-03-08T09:10:58.212Z,998.42
2019-03-08T09:11:58.205Z,998.49
2019-03-08T09:12:58.197Z,998.53
2019-03-08T09:13:58.211Z,998.57
2019-03-08T09:14:58.190Z,998.44
2019-03-08T09:15:58.165Z,998.57
2019-03-08T09:16:58.156Z,998.59
2019-03-08T09:17:58.143Z,998.61
2019-03-08T09:18:58.158Z,998.66
2019-03-08T09:19:59.336Z,998.65
2019-03-08T09:20:58.108Z,998.55
2019-03-08T09:21:58.085Z,998.61
2019-03-08T09:22:58.084Z,998.83
2019-03-08T09:23:58.095Z,998.74
2019-03-08T09:24:58.064Z,998.83
2019-03-08T09:25:58.058Z,998.76
2019-03-08T09:26:58.034Z,998.75
2019-03-08T09:27:58.049Z,998.75
2019-03-08T09:28:58.013Z,998.82
2019-03-08T09:29:58.013Z,998.90
2019-03-08T09:30:58.001Z,998.80
2019-03-08T09:31:58.010Z,998.96
2019-03-08T09:32:59.460Z,998.86
2019-03-08T09:33:57.955Z,999.01
2019-03-08T09:34:57.983Z,999.04
2019-03-08T09:35:57.937Z,999.02
2019-03-08T09:36:57.944Z,999.18
2019-03-08T09:37:57.914Z,999.13
2019-03-08T09:38:57.907Z,999.05
2019-03-08T09:39:57.909Z,999.10
2019-03-08T09:40:57.888Z,999.35
2019-03-08T09:41:57.880Z,999.15
2019-03-08T09:42:57.870Z,999.26
2019-03-08T09:43:57.841Z,999.37
2019-03-08T09:44:57.892Z,999.30
2019-03-08T09:45:57.826Z,999.34
2019-03-08T09:46:57.819Z,999.38
2019-03-08T09:47:57.809Z,999.47
2019-03-08T09:48:58.867Z,999.45
2019-03-08T09:49:57.792Z,999.41
2019-03-08T09:50:57.764Z,999.51
2019-03-08T09:51:57.757Z,999.45
2019-03-08T09:52:57.742Z,999.60
2019-03-08T09:53:57.733Z,999.61
2019-03-08T09:54:57.748Z,999.63
2019-03-08T09:55:57.712Z,999.55
2019-03-08T09:56:57.699Z,999.64
2019-03-08T09:57:57.695Z,999.74
2019-03-08T09:58:57.698Z,999.70
2019-03-08T09:59:57.668Z,999.92
2019-03-08T10:00:57.711Z,999.77
2019-03-08T10:01:57.641Z,999.76
2019-03-08T10:02:57.639Z,999.83
2019-03-08T10:03:57.662Z,999.84
2019-03-08T10:04:57.619Z,999.86
2019-03-08T10:05:57.625Z,999.88
2019-03-08T10:06:57.586Z,999.97
2019-03-08T10:07:57.573Z,999.87
2019-03-08T10:08:57.569Z,999.93
2019-03-08T10:09:57.552Z,1000.10
2019-03-08T10:10:57.558Z,1000.12
2019-03-08T10:11:57.611Z,999.96
2019-03-08T10:12:57.516Z,999.95
2019-03-08T10:13:57.530Z,1000.08
2019-03-08T10:14:57.499Z,1000.05
2019-03-08T10:15:57.507Z,1000.19
2019-03-08T10:16:57.483Z,1000.23
2019-03-08T10:17:57.470Z,1000.22
2019-03-08T10:18:57.455Z,1000.30
2019-03-08T10:19:57.441Z,1000.31
2019-03-08T10:20:57.453Z,1000.31
2019-03-08T10:21:57.430Z,1000.28
2019-03-08T10:22:57.422Z,1000.42
2019-03-08T10:23:57.395Z,1000.33
2019-03-08T10:24:57.398Z,1000.34
2019-03-08T10:25:57.416Z,1000.33
2019-03-08T10:26:57.367Z,1000.45
2019-03-08T10:27:57.373Z,1000.38
2019-03-08T10:28:57.331Z,1000.48
2019-03-08T10:29:57.341Z,1000.47
2019-03-08T10:30:57.314Z,1000.59
2019-03-08T10:31:57.322Z,1000.76
2019-03-08T10:32:57.303Z,1000.56
2019-03-08T10:33:57.309Z,1000.60
2019-03-08T10:34:57.270Z,1000.68
2019-03-08T10:35:57.261Z,1000.54
2019-03-08T10:36:57.262Z,1000.54
2019-03-08T10:37:57.236Z,1000.53
2019-03-08T10:38:57.224Z,1000.65
2019-03-08T10:39:57.214Z,1000.70
2019-03-08T10:40:57.203Z,1000.72
2019-03-08T10:41:57.208Z,1000.83
2019-03-08T10:42:58.813Z,1000.75
2019-03-08T10:43:57.169Z,1001.02
2019-03-08T10:44:57.153Z,1001.09
2019-03-08T10:45:57.178Z,1000.94
2019-03-08T10:46:57.170Z,1000.84
2019-03-08T10:47:57.129Z,1000.88
2019-03-08T10:48:57.113Z,1000.89
2019-03-08T10:49:57.101Z,1000.81
2019-03-08T10:50:57.132Z,1000.99
2019-03-08T10:51:57.137Z,1001.18
2019-03-08T10:52:57.070Z,1000.98
2019-03-08T10:54:00.556Z,1001.05
2019-03-08T10:54:58.539Z,1000.86
2019-03-08T10:55:57.030Z,1001.07
2019-03-08T10:56:57.030Z,1000.93
2019-03-08T10:57:57.038Z,1000.97
2019-03-08T10:58:56.998Z,1000.91
2019-03-08T10:59:56.986Z,1001.05
2019-03-08T11:00:56.987Z,1001.02
2019-03-08T11:01:56.993Z,1001.28
2019-03-08T11:02:57.001Z,1001.02
2019-03-08T11:03:56.938Z,1001.03
2019-03-08T11:04:56.932Z,1001.07
2019-03-08T11:05:56.919Z,1001.37
2019-03-08T11:06:56.906Z,1001.39
2019-03-08T11:07:56.922Z,1001.20
2019-03-08T11:08:57.503Z,1001.15
2019-03-08T11:09:56.891Z,1001.18
2019-03-08T11:11:05.939Z,1001.23
2019-03-08T11:11:57.852Z,1001.25
2019-03-08T11:12:56.868Z,1001.45
2019-03-08T11:13:56.833Z,1001.38
2019-03-08T11:14:56.816Z,1001.46
2019-03-08T11:15:56.804Z,1001.59
2019-03-08T11:16:56.790Z,1001.63
2019-03-08T11:17:56.818Z,1001.57
2019-03-08T11:18:56.791Z,1001.69
2019-03-08T11:19:56.767Z,1001.69
2019-03-08T11:20:56.744Z,1001.74
2019-03-08T11:21:56.731Z,1001.75
2019-03-08T11:22:56.929Z,1001.92
2019-03-08T11:23:56.712Z,1002.04
2019-03-08T11:24:56.700Z,1002.09
2019-03-08T11:25:56.690Z,1002.09
2019-03-08T11:27:04.752Z,1002.08
2019-03-08T11:27:57.685Z,1002.12
2019-03-08T11:28:56.662Z,1002.14
2019-03-08T11:29:56.640Z,1002.11
2019-03-08T11:30:56.638Z,1002.14
2019-03-08T11:31:56.625Z,1002.13
2019-03-08T11:32:56.643Z,1002.16
2019-03-08T11:33:56.598Z,1002.15
2019-03-08T11:34:56.622Z,1002.16
2019-03-08T11:35:56.578Z,1002.21
2019-03-08T11:36:56.570Z,1002.19
2019-03-08T11:37:56.563Z,1002.13
2019-03-08T11:38:56.569Z,1002.20
2019-03-08T11:39:56.595Z,1002.17
2019-03-08T11:40:56.529Z,1002.29
2019-03-08T11:41:56.521Z,1002.39
2019-03-08T11:42:56.507Z,1002.45
2019-03-08T11:43:56.524Z,1002.40
2019-03-08T11:44:56.478Z,1002.46
2019-03-08T11:45:56.481Z,1002.55
2019-03-08T11:46:56.459Z,1002.62
2019-03-08T11:47:56.453Z,1002.73
2019-03-08T11:48:56.483Z,1002.68
2019-03-08T11:49:56.495Z,1002.72
2019-03-08T11:50:56.414Z,1002.76
2019-03-08T11:51:56.413Z,1002.73
2019-03-08T11:52:56.383Z,1002.76
2019-03-08T11:53:56.691Z,1002.61
2019-03-08T11:54:56.367Z,1002.76
2019-03-08T11:55:56.356Z,1002.40
2019-03-08T11:56:56.628Z,1002.46
2019-03-08T11:57:56.350Z,1002.63
2019-03-08T11:58:56.348Z,1002.72
2019-03-08T11:59:56.329Z,1002.72
2019-03-08T12:00:56.379Z,1002.64
2019-03-08T12:01:56.300Z,1002.60
2019-03-08T12:02:56.276Z,1002.80
2019-03-08T12:03:56.291Z,1002.76
2019-03-08T12:04:56.256Z,1002.65
2019-03-08T12:05:56.260Z,1002.54
2019-03-08T12:06:56.233Z,1002.79
2019-03-08T12:07:56.223Z,1002.86
2019-03-08T12:08:56.232Z,1002.80
2019-03-08T12:09:56.199Z,1002.81
2019-03-08T12:10:56.314Z,1002.76
2019-03-08T12:11:56.207Z,1002.75
2019-03-08T12:12:56.182Z,1002.74
2019-03-08T12:13:56.169Z,1002.81
2019-03-08T12:14:56.140Z,1002.78
2019-03-08T12:15:56.130Z,1002.75
2019-03-08T12:16:56.123Z,1002.79
2019-03-08T12:17:56.110Z,1002.72
2019-03-08T12:18:56.115Z,1002.76
2019-03-08T12:19:56.087Z,1002.80
2019-03-08T12:20:56.070Z,1002.87
2019-03-08T12:21:56.062Z,1002.84
2019-03-08T12:22:56.046Z,1002.85
2019-03-08T12:23:56.064Z,1002.80